sensor_id;sensor_type;location;lat;lon;timestamp;temperature;humidity
14031;DHT22;7090;49.436;8.490;2023-03-01T00:01:25;1.70;92.90
14031;DHT22;7090;49.436;8.490;2023-03-01T00:03:52;1.70;1.00
14031;DHT22;7090;49.436;8.490;2023-03-01T00:06:19;1.70;1.00
14031;DHT22;7090;49.436;8.490;2023-03-01T00:08:45;1.60;99.90
14031;DHT22;7090;49.436;8.490;2023-03-01T00:11:17;1.60;99.90
14031;DHT22;7090;49.436;8.490;2023-03-01T00:13:44;1.60;1.00
14031;DHT22;7090;49.436;8.490;2023-03-01T00:16:13;1.60;1.00
14031;DHT22;7090;49.436;8.490;2023-03-01T00:18:39;1.50;1.00
14031;DHT22;7090;49.436;8.490;2023-03-01T00:21:05;1.40;1.00
14031;DHT22;7090;49.436;8.490;2023-03-01T00:23:33;1.40;93.60
14031;DHT22;7090;49.436;8.490;2023-03-01T00:25:58;1.40;99.90
14031;DHT22;7090;49.436;8.490;2023-03-01T00:28:24;1.40;1.00
14031;DHT22;7090;49.436;8.490;2023-03-01T00:30:49;1.30;1.00
14031;DHT22;7090;49.436;8.490;2023-03-01T00:33:15;1.30;1.00
14031;DHT22;7090;49.436;8.490;2023-03-01T00:35:40;1.30;1.00
14031;DHT22;7090;49.436;8.490;2023-03-01T00:38:06;1.20;99.90
14031;DHT22;7090;49.436;8.490;2023-03-01T00:40:34;1.30;99.90
14031;DHT22;7090;49.436;8.490;2023-03-01T00:43:00;1.20;1.00
14031;DHT22;7090;49.436;8.490;2023-03-01T00:45:26;1.20;99.90
14031;DHT22;7090;49.436;8.490;2023-03-01T00:47:52;1.20;1.00
14031;DHT22;7090;49.436;8.490;2023-03-01T00:50:18;1.20;1.00
14031;DHT22;7090;49.436;8.490;2023-03-01T00:52:44;1.20;1.00
14031;DHT22;7090;49.436;8.490;2023-03-01T00:55:11;1.20;1.00
14031;DHT22;7090;49.436;8.490;2023-03-01T00:57:37;1.10;1.00
14031;DHT22;7090;49.436;8.490;2023-03-01T01:00:05;1.10;99.90
14031;DHT22;7090;49.436;8.490;2023-03-01T01:02:32;1.10;1.00
14031;DHT22;7090;49.436;8.490;2023-03-01T01:04:58;1.10;99.90
14031;DHT22;7090;49.436;8.490;2023-03-01T01:07:24;1.10;1.00
14031;DHT22;7090;49.436;8.490;2023-03-01T01:09:49;1.00;1.00
14031;DHT22;7090;49.436;8.490;2023-03-01T01:12:15;1.00;1.00
14031;DHT22;7090;49.436;8.490;2023-03-01T01:14:41;1.00;99.90
14031;DHT22;7090;49.436;8.490;2023-03-01T01:17:07;1.00;1.00
14031;DHT22;7090;49.436;8.490;2023-03-01T01:19:32;1.00;1.00
14031;DHT22;7090;49.436;8.490;2023-03-01T01:21:58;1.00;1.00
14031;DHT22;7090;49.436;8.490;2023-03-01T01:24:23;1.00;1.00
14031;DHT22;7090;49.436;8.490;2023-03-01T01:26:49;0.90;99.90
14031;DHT22;7090;49.436;8.490;2023-03-01T01:29:15;0.90;90.90
14031;DHT22;7090;49.436;8.490;2023-03-01T01:31:42;0.90;1.00
14031;DHT22;7090;49.436;8.490;2023-03-01T01:34:13;1.00;1.00
14031;DHT22;7090;49.436;8.490;2023-03-01T01:36:39;1.00;1.00
14031;DHT22;7090;49.436;8.490;2023-03-01T01:39:05;1.00;99.90
14031;DHT22;7090;49.436;8.490;2023-03-01T01:41:31;0.90;1.00
14031;DHT22;7090;49.436;8.490;2023-03-01T01:51:45;0.70;1.00
14031;DHT22;7090;49.436;8.490;2023-03-01T01:54:23;0.70;1.00
14031;DHT22;7090;49.436;8.490;2023-03-01T01:57:02;0.60;1.00
14031;DHT22;7090;49.436;8.490;2023-03-01T01:59:30;0.70;99.90
14031;DHT22;7090;49.436;8.490;2023-03-01T02:01:59;0.70;1.00
14031;DHT22;7090;49.436;8.490;2023-03-01T02:04:26;0.80;99.90
14031;DHT22;7090;49.436;8.490;2023-03-01T02:06:57;0.80;99.90
14031;DHT22;7090;49.436;8.490;2023-03-01T02:09:27;0.80;1.00
14031;DHT22;7090;49.436;8.490;2023-03-01T02:11:53;0.80;99.90
14031;DHT22;7090;49.436;8.490;2023-03-01T02:14:19;0.80;1.00
14031;DHT22;7090;49.436;8.490;2023-03-01T02:16:45;0.80;99.90
14031;DHT22;7090;49.436;8.490;2023-03-01T02:22:10;0.70;99.90
14031;DHT22;7090;49.436;8.490;2023-03-01T02:27:27;0.60;1.00
14031;DHT22;7090;49.436;8.490;2023-03-01T02:29:57;0.70;1.00
14031;DHT22;7090;49.436;8.490;2023-03-01T02:32:22;0.70;1.00
14031;DHT22;7090;49.436;8.490;2023-03-01T02:34:54;0.70;1.00
14031;DHT22;7090;49.436;8.490;2023-03-01T02:37:21;0.60;1.00
14031;DHT22;7090;49.436;8.490;2023-03-01T02:39:55;0.70;99.90
14031;DHT22;7090;49.436;8.490;2023-03-01T02:42:26;0.70;99.90
14031;DHT22;7090;49.436;8.490;2023-03-01T02:44:53;0.80;1.00
14031;DHT22;7090;49.436;8.490;2023-03-01T02:47:19;0.80;1.00
14031;DHT22;7090;49.436;8.490;2023-03-01T02:49:45;0.70;71.80
14031;DHT22;7090;49.436;8.490;2023-03-01T02:52:45;0.70;1.00
14031;DHT22;7090;49.436;8.490;2023-03-01T02:57:35;0.50;1.00
14031;DHT22;7090;49.436;8.490;2023-03-01T03:00:09;0.50;1.00
14031;DHT22;7090;49.436;8.490;2023-03-01T03:02:49;0.50;1.00
14031;DHT22;7090;49.436;8.490;2023-03-01T03:05:17;0.50;1.00
14031;DHT22;7090;49.436;8.490;2023-03-01T03:07:46;0.50;1.00
14031;DHT22;7090;49.436;8.490;2023-03-01T03:10:27;0.50;1.00
14031;DHT22;7090;49.436;8.490;2023-03-01T03:13:02;0.50;1.00
14031;DHT22;7090;49.436;8.490;2023-03-01T03:15:28;0.50;1.00
14031;DHT22;7090;49.436;8.490;2023-03-01T03:17:55;0.50;1.00
14031;DHT22;7090;49.436;8.490;2023-03-01T03:20:23;0.50;1.00
14031;DHT22;7090;49.436;8.490;2023-03-01T03:22:51;0.50;1.00
14031;DHT22;7090;49.436;8.490;2023-03-01T03:25:18;0.50;1.00
14031;DHT22;7090;49.436;8.490;2023-03-01T03:27:47;0.50;1.00
14031;DHT22;7090;49.436;8.490;2023-03-01T03:30:17;0.50;1.00
14031;DHT22;7090;49.436;8.490;2023-03-01T03:32:45;0.60;1.00
14031;DHT22;7090;49.436;8.490;2023-03-01T03:37:49;0.40;1.00
14031;DHT22;7090;49.436;8.490;2023-03-01T03:40:38;0.40;1.00
14031;DHT22;7090;49.436;8.490;2023-03-01T03:43:23;0.30;1.00
14031;DHT22;7090;49.436;8.490;2023-03-01T03:45:50;0.30;1.00
14031;DHT22;7090;49.436;8.490;2023-03-01T03:48:17;0.20;1.00
14031;DHT22;7090;49.436;8.490;2023-03-01T03:50:48;0.00;99.90
14031;DHT22;7090;49.436;8.490;2023-03-01T03:53:14;-0.10;1.00
14031;DHT22;7090;49.436;8.490;2023-03-01T03:55:40;-0.10;1.00
14031;DHT22;7090;49.436;8.490;2023-03-01T03:58:09;-0.10;1.00
14031;DHT22;7090;49.436;8.490;2023-03-01T04:00:38;-0.10;1.00
14031;DHT22;7090;49.436;8.490;2023-03-01T04:03:04;-0.10;1.00
14031;DHT22;7090;49.436;8.490;2023-03-01T04:05:30;-0.20;20.60
14031;DHT22;7090;49.436;8.490;2023-03-01T04:07:57;-0.20;99.90
14031;DHT22;7090;49.436;8.490;2023-03-01T04:10:43;-0.20;99.90
14031;DHT22;7090;49.436;8.490;2023-03-01T04:13:12;-0.20;99.90
14031;DHT22;7090;49.436;8.490;2023-03-01T04:15:38;-0.30;99.90
14031;DHT22;7090;49.436;8.490;2023-03-01T04:18:04;-0.30;99.90
14031;DHT22;7090;49.436;8.490;2023-03-01T04:20:33;-0.40;99.90
14031;DHT22;7090;49.436;8.490;2023-03-01T04:23:07;-0.40;99.90
14031;DHT22;7090;49.436;8.490;2023-03-01T04:25:56;-0.40;99.90
14031;DHT22;7090;49.436;8.490;2023-03-01T04:28:29;-0.40;99.90
14031;DHT22;7090;49.436;8.490;2023-03-01T04:30:57;-0.40;99.90
14031;DHT22;7090;49.436;8.490;2023-03-01T04:33:25;-0.40;99.90
14031;DHT22;7090;49.436;8.490;2023-03-01T04:35:51;-0.40;99.90
14031;DHT22;7090;49.436;8.490;2023-03-01T04:38:18;-0.40;99.90
14031;DHT22;7090;49.436;8.490;2023-03-01T04:40:45;-0.40;99.90
14031;DHT22;7090;49.436;8.490;2023-03-01T04:43:12;-0.30;99.90
14031;DHT22;7090;49.436;8.490;2023-03-01T04:45:39;-0.30;99.90
14031;DHT22;7090;49.436;8.490;2023-03-01T04:48:05;-0.30;99.90
14031;DHT22;7090;49.436;8.490;2023-03-01T04:50:31;-0.20;99.90
14031;DHT22;7090;49.436;8.490;2023-03-01T04:52:57;0.00;99.90
14031;DHT22;7090;49.436;8.490;2023-03-01T04:55:27;0.10;99.90
14031;DHT22;7090;49.436;8.490;2023-03-01T04:57:53;0.10;99.90
14031;DHT22;7090;49.436;8.490;2023-03-01T05:00:20;0.00;99.90
14031;DHT22;7090;49.436;8.490;2023-03-01T05:02:51;-0.20;99.90
14031;DHT22;7090;49.436;8.490;2023-03-01T05:05:19;0.00;99.90
14031;DHT22;7090;49.436;8.490;2023-03-01T05:07:45;0.00;99.90
14031;DHT22;7090;49.436;8.490;2023-03-01T05:10:11;-0.10;99.90
14031;DHT22;7090;49.436;8.490;2023-03-01T05:12:36;0.00;99.90
14031;DHT22;7090;49.436;8.490;2023-03-01T05:15:03;0.00;99.90
14031;DHT22;7090;49.436;8.490;2023-03-01T05:17:33;0.10;99.90
14031;DHT22;7090;49.436;8.490;2023-03-01T05:19:59;0.10;99.90
14031;DHT22;7090;49.436;8.490;2023-03-01T05:22:25;0.10;99.90
14031;DHT22;7090;49.436;8.490;2023-03-01T05:24:50;0.10;99.90
14031;DHT22;7090;49.436;8.490;2023-03-01T05:27:16;0.20;99.90
14031;DHT22;7090;49.436;8.490;2023-03-01T05:29:41;0.20;99.90
14031;DHT22;7090;49.436;8.490;2023-03-01T05:32:07;0.20;99.90
14031;DHT22;7090;49.436;8.490;2023-03-01T05:34:35;0.20;99.90
14031;DHT22;7090;49.436;8.490;2023-03-01T05:37:01;0.20;99.90
14031;DHT22;7090;49.436;8.490;2023-03-01T05:39:29;0.20;99.90
14031;DHT22;7090;49.436;8.490;2023-03-01T05:41:56;0.20;99.90
14031;DHT22;7090;49.436;8.490;2023-03-01T05:44:23;0.20;99.90
14031;DHT22;7090;49.436;8.490;2023-03-01T05:46:48;0.20;99.90
14031;DHT22;7090;49.436;8.490;2023-03-01T05:49:15;0.20;99.90
14031;DHT22;7090;49.436;8.490;2023-03-01T05:51:42;0.20;99.90
14031;DHT22;7090;49.436;8.490;2023-03-01T05:54:08;0.30;99.90
14031;DHT22;7090;49.436;8.490;2023-03-01T05:56:35;0.30;99.90
14031;DHT22;7090;49.436;8.490;2023-03-01T05:59:01;0.30;99.90
14031;DHT22;7090;49.436;8.490;2023-03-01T06:01:27;0.30;99.90
14031;DHT22;7090;49.436;8.490;2023-03-01T06:03:54;0.30;99.90
14031;DHT22;7090;49.436;8.490;2023-03-01T06:06:19;0.30;99.90
14031;DHT22;7090;49.436;8.490;2023-03-01T06:08:45;0.30;99.90
14031;DHT22;7090;49.436;8.490;2023-03-01T06:11:10;0.30;99.90
14031;DHT22;7090;49.436;8.490;2023-03-01T06:13:36;0.40;99.90
14031;DHT22;7090;49.436;8.490;2023-03-01T06:16:05;0.40;99.90
14031;DHT22;7090;49.436;8.490;2023-03-01T06:18:31;0.40;99.90
14031;DHT22;7090;49.436;8.490;2023-03-01T06:20:56;0.40;99.90
14031;DHT22;7090;49.436;8.490;2023-03-01T06:23:23;0.40;99.90
14031;DHT22;7090;49.436;8.490;2023-03-01T06:25:49;0.40;99.90
14031;DHT22;7090;49.436;8.490;2023-03-01T06:28:14;0.50;78.00
14031;DHT22;7090;49.436;8.490;2023-03-01T06:30:40;0.60;57.00
14031;DHT22;7090;49.436;8.490;2023-03-01T06:33:05;0.70;24.30
14031;DHT22;7090;49.436;8.490;2023-03-01T06:35:31;0.70;1.00
14031;DHT22;7090;49.436;8.490;2023-03-01T06:37:59;0.80;1.00
14031;DHT22;7090;49.436;8.490;2023-03-01T06:40:26;0.90;1.00
14031;DHT22;7090;49.436;8.490;2023-03-01T06:42:51;1.10;1.00
14031;DHT22;7090;49.436;8.490;2023-03-01T06:45:18;1.20;1.00
14031;DHT22;7090;49.436;8.490;2023-03-01T06:47:44;1.40;1.00
14031;DHT22;7090;49.436;8.490;2023-03-01T06:50:10;1.50;1.00
14031;DHT22;7090;49.436;8.490;2023-03-01T06:52:37;1.60;1.00
14031;DHT22;7090;49.436;8.490;2023-03-01T06:55:05;1.70;1.00
14031;DHT22;7090;49.436;8.490;2023-03-01T06:57:31;1.80;1.00
14031;DHT22;7090;49.436;8.490;2023-03-01T06:59:56;2.00;1.00
14031;DHT22;7090;49.436;8.490;2023-03-01T07:02:22;2.10;1.00
14031;DHT22;7090;49.436;8.490;2023-03-01T07:04:51;2.20;1.00
14031;DHT22;7090;49.436;8.490;2023-03-01T07:07:17;2.30;1.00
14031;DHT22;7090;49.436;8.490;2023-03-01T07:09:44;2.20;1.00
14031;DHT22;7090;49.436;8.490;2023-03-01T07:12:10;2.30;1.00
14031;DHT22;7090;49.436;8.490;2023-03-01T07:14:36;2.20;1.00
14031;DHT22;7090;49.436;8.490;2023-03-01T07:17:02;2.50;1.00
14031;DHT22;7090;49.436;8.490;2023-03-01T07:19:27;2.50;99.90
14031;DHT22;7090;49.436;8.490;2023-03-01T07:21:53;2.60;99.90
14031;DHT22;7090;49.436;8.490;2023-03-01T07:24:19;2.60;99.90
14031;DHT22;7090;49.436;8.490;2023-03-01T07:26:48;2.60;99.90
14031;DHT22;7090;49.436;8.490;2023-03-01T07:29:15;2.80;99.90
14031;DHT22;7090;49.436;8.490;2023-03-01T07:31:41;3.10;99.90
14031;DHT22;7090;49.436;8.490;2023-03-01T07:34:06;3.20;99.90
14031;DHT22;7090;49.436;8.490;2023-03-01T07:36:32;3.40;99.90
14031;DHT22;7090;49.436;8.490;2023-03-01T07:38:58;3.20;99.90
14031;DHT22;7090;49.436;8.490;2023-03-01T07:41:24;3.40;99.90
14031;DHT22;7090;49.436;8.490;2023-03-01T07:43:50;3.50;99.90
14031;DHT22;7090;49.436;8.490;2023-03-01T07:46:15;3.60;99.90
14031;DHT22;7090;49.436;8.490;2023-03-01T07:48:41;3.80;99.90
14031;DHT22;7090;49.436;8.490;2023-03-01T07:51:07;4.20;99.90
14031;DHT22;7090;49.436;8.490;2023-03-01T07:53:33;4.40;1.00
14031;DHT22;7090;49.436;8.490;2023-03-01T07:56:07;3.90;1.00
14031;DHT22;7090;49.436;8.490;2023-03-01T07:58:43;4.10;1.00
14031;DHT22;7090;49.436;8.490;2023-03-01T08:01:12;4.30;1.00
14031;DHT22;7090;49.436;8.490;2023-03-01T08:03:38;4.60;1.00
14031;DHT22;7090;49.436;8.490;2023-03-01T08:06:06;4.70;1.00
14031;DHT22;7090;49.436;8.490;2023-03-01T08:08:32;4.50;98.20
14031;DHT22;7090;49.436;8.490;2023-03-01T08:10:59;4.50;13.80
14031;DHT22;7090;49.436;8.490;2023-03-01T08:13:25;5.10;14.70
14031;DHT22;7090;49.436;8.490;2023-03-01T08:15:51;5.20;99.90
14031;DHT22;7090;49.436;8.490;2023-03-01T08:18:18;4.80;99.90
14031;DHT22;7090;49.436;8.490;2023-03-01T08:20:44;4.90;99.90
14031;DHT22;7090;49.436;8.490;2023-03-01T08:23:09;5.20;99.90
14031;DHT22;7090;49.436;8.490;2023-03-01T08:25:35;4.90;99.90
14031;DHT22;7090;49.436;8.490;2023-03-01T08:28:00;5.10;99.90
14031;DHT22;7090;49.436;8.490;2023-03-01T08:30:26;5.40;1.00
14031;DHT22;7090;49.436;8.490;2023-03-01T08:32:52;5.60;1.00
14031;DHT22;7090;49.436;8.490;2023-03-01T08:35:18;5.70;1.00
14031;DHT22;7090;49.436;8.490;2023-03-01T08:37:44;5.90;1.00
14031;DHT22;7090;49.436;8.490;2023-03-01T08:40:10;5.80;1.00
14031;DHT22;7090;49.436;8.490;2023-03-01T08:42:36;6.20;1.00
14031;DHT22;7090;49.436;8.490;2023-03-01T08:45:03;6.10;1.00
14031;DHT22;7090;49.436;8.490;2023-03-01T08:47:29;6.50;1.00
14031;DHT22;7090;49.436;8.490;2023-03-01T08:49:54;6.80;99.90
14031;DHT22;7090;49.436;8.490;2023-03-01T08:52:21;5.70;1.00
14031;DHT22;7090;49.436;8.490;2023-03-01T08:54:49;5.60;1.00
14031;DHT22;7090;49.436;8.490;2023-03-01T08:57:15;6.10;1.00
14031;DHT22;7090;49.436;8.490;2023-03-01T08:59:41;6.40;1.00
14031;DHT22;7090;49.436;8.490;2023-03-01T09:02:12;6.00;1.00
14031;DHT22;7090;49.436;8.490;2023-03-01T09:04:39;5.90;1.00
14031;DHT22;7090;49.436;8.490;2023-03-01T09:07:04;5.70;1.00
14031;DHT22;7090;49.436;8.490;2023-03-01T09:09:30;5.80;1.00
14031;DHT22;7090;49.436;8.490;2023-03-01T09:11:55;6.20;1.00
14031;DHT22;7090;49.436;8.490;2023-03-01T09:14:21;6.70;1.00
14031;DHT22;7090;49.436;8.490;2023-03-01T09:16:47;6.30;1.00
14031;DHT22;7090;49.436;8.490;2023-03-01T09:19:13;6.80;1.00
14031;DHT22;7090;49.436;8.490;2023-03-01T09:21:39;6.80;1.00
14031;DHT22;7090;49.436;8.490;2023-03-01T09:24:06;7.20;1.00
14031;DHT22;7090;49.436;8.490;2023-03-01T09:26:31;6.80;1.00
14031;DHT22;7090;49.436;8.490;2023-03-01T09:28:57;7.60;1.00
14031;DHT22;7090;49.436;8.490;2023-03-01T09:31:23;8.40;1.00
14031;DHT22;7090;49.436;8.490;2023-03-01T09:33:51;8.30;1.00
14031;DHT22;7090;49.436;8.490;2023-03-01T09:36:22;8.00;1.00
14031;DHT22;7090;49.436;8.490;2023-03-01T09:38:48;7.70;1.00
14031;DHT22;7090;49.436;8.490;2023-03-01T09:44:03;8.20;1.00
14031;DHT22;7090;49.436;8.490;2023-03-01T09:46:35;8.30;1.00
14031;DHT22;7090;49.436;8.490;2023-03-01T09:49:06;8.50;1.00
14031;DHT22;7090;49.436;8.490;2023-03-01T09:51:35;8.40;1.00
14031;DHT22;7090;49.436;8.490;2023-03-01T09:54:05;8.90;1.00
14031;DHT22;7090;49.436;8.490;2023-03-01T09:56:41;8.30;1.00
14031;DHT22;7090;49.436;8.490;2023-03-01T09:59:25;8.50;1.00
14031;DHT22;7090;49.436;8.490;2023-03-01T10:02:07;8.40;1.00
14031;DHT22;7090;49.436;8.490;2023-03-01T10:04:55;7.70;1.00
14031;DHT22;7090;49.436;8.490;2023-03-01T10:07:48;8.20;1.00
14031;DHT22;7090;49.436;8.490;2023-03-01T10:10:32;8.40;1.00
14031;DHT22;7090;49.436;8.490;2023-03-01T10:13:02;8.90;1.00
14031;DHT22;7090;49.436;8.490;2023-03-01T10:15:39;8.20;1.00
14031;DHT22;7090;49.436;8.490;2023-03-01T10:18:14;8.10;1.00
14031;DHT22;7090;49.436;8.490;2023-03-01T10:20:52;8.60;1.00
14031;DHT22;7090;49.436;8.490;2023-03-01T10:23:18;8.70;1.00
14031;DHT22;7090;49.436;8.490;2023-03-01T10:28:25;8.60;1.00
14031;DHT22;7090;49.436;8.490;2023-03-01T10:30:53;9.30;1.00
14031;DHT22;7090;49.436;8.490;2023-03-01T10:33:29;9.90;1.00
14031;DHT22;7090;49.436;8.490;2023-03-01T10:35:55;10.40;1.00
14031;DHT22;7090;49.436;8.490;2023-03-01T10:38:21;10.50;1.00
14031;DHT22;7090;49.436;8.490;2023-03-01T10:40:53;9.60;1.00
14031;DHT22;7090;49.436;8.490;2023-03-01T10:43:20;10.50;1.00
14031;DHT22;7090;49.436;8.490;2023-03-01T10:45:46;11.10;1.00
14031;DHT22;7090;49.436;8.490;2023-03-01T10:50:40;11.70;1.00
14031;DHT22;7090;49.436;8.490;2023-03-01T10:58:29;9.60;1.00
14031;DHT22;7090;49.436;8.490;2023-03-01T11:06:01;8.00;1.00
14031;DHT22;7090;49.436;8.490;2023-03-01T11:11:32;10.40;1.00
14031;DHT22;7090;49.436;8.490;2023-03-01T11:14:17;11.30;1.00
14031;DHT22;7090;49.436;8.490;2023-03-01T11:16:49;11.80;1.00
14031;DHT22;7090;49.436;8.490;2023-03-01T11:19:23;11.80;1.00
14031;DHT22;7090;49.436;8.490;2023-03-01T11:21:59;10.90;1.00
14031;DHT22;7090;49.436;8.490;2023-03-01T11:27:12;10.90;1.00
14031;DHT22;7090;49.436;8.490;2023-03-01T11:29:51;11.20;1.00
14031;DHT22;7090;49.436;8.490;2023-03-01T11:32:21;11.70;1.00
14031;DHT22;7090;49.436;8.490;2023-03-01T11:35:14;12.10;1.00
14031;DHT22;7090;49.436;8.490;2023-03-01T11:38:03;12.30;1.00
14031;DHT22;7090;49.436;8.490;2023-03-01T11:41:06;12.10;1.00
14031;DHT22;7090;49.436;8.490;2023-03-01T11:51:45;12.80;1.00
14031;DHT22;7090;49.436;8.490;2023-03-01T12:00:41;12.60;1.00
14031;DHT22;7090;49.436;8.490;2023-03-01T12:06:12;12.50;1.00
14031;DHT22;7090;49.436;8.490;2023-03-01T12:08:57;12.50;1.00
14031;DHT22;7090;49.436;8.490;2023-03-01T12:11:39;12.70;1.00
14031;DHT22;7090;49.436;8.490;2023-03-01T12:20:44;11.60;1.00
14031;DHT22;7090;49.436;8.490;2023-03-01T12:26:01;12.90;1.00
14031;DHT22;7090;49.436;8.490;2023-03-01T12:31:40;12.00;1.00
14031;DHT22;7090;49.436;8.490;2023-03-01T12:34:24;11.10;1.00
14031;DHT22;7090;49.436;8.490;2023-03-01T12:43:12;11.60;1.00
14031;DHT22;7090;49.436;8.490;2023-03-01T12:48:24;11.40;1.00
14031;DHT22;7090;49.436;8.490;2023-03-01T12:50:54;10.70;1.00
14031;DHT22;7090;49.436;8.490;2023-03-01T12:53:35;10.60;1.00
14031;DHT22;7090;49.436;8.490;2023-03-01T12:56:14;11.00;1.00
14031;DHT22;7090;49.436;8.490;2023-03-01T12:58:55;11.10;1.00
14031;DHT22;7090;49.436;8.490;2023-03-01T13:06:38;11.00;1.00
14031;DHT22;7090;49.436;8.490;2023-03-01T13:11:44;11.00;1.00
14031;DHT22;7090;49.436;8.490;2023-03-01T13:16:49;11.20;1.00
14031;DHT22;7090;49.436;8.490;2023-03-01T13:19:16;10.70;1.00
14031;DHT22;7090;49.436;8.490;2023-03-01T13:21:43;10.40;1.00
14031;DHT22;7090;49.436;8.490;2023-03-01T13:24:39;10.90;1.00
14031;DHT22;7090;49.436;8.490;2023-03-01T13:29:44;11.00;1.00
14031;DHT22;7090;49.436;8.490;2023-03-01T13:34:48;10.90;1.00
14031;DHT22;7090;49.436;8.490;2023-03-01T13:37:37;10.50;1.00
14031;DHT22;7090;49.436;8.490;2023-03-01T13:43:36;11.50;1.00
14031;DHT22;7090;49.436;8.490;2023-03-01T13:46:15;11.10;1.00
14031;DHT22;7090;49.436;8.490;2023-03-01T13:48:45;10.30;1.00
14031;DHT22;7090;49.436;8.490;2023-03-01T13:51:12;10.40;1.00
14031;DHT22;7090;49.436;8.490;2023-03-01T13:53:46;10.10;1.00
14031;DHT22;7090;49.436;8.490;2023-03-01T13:56:19;10.40;1.00
14031;DHT22;7090;49.436;8.490;2023-03-01T14:01:26;11.00;1.00
14031;DHT22;7090;49.436;8.490;2023-03-01T14:03:52;11.10;1.00
14031;DHT22;7090;49.436;8.490;2023-03-01T14:06:27;11.40;1.00
14031;DHT22;7090;49.436;8.490;2023-03-01T14:11:49;11.20;1.00
14031;DHT22;7090;49.436;8.490;2023-03-01T14:14:48;11.60;1.00
14031;DHT22;7090;49.436;8.490;2023-03-01T14:17:41;11.90;1.00
14031;DHT22;7090;49.436;8.490;2023-03-01T14:22:40;11.20;1.00
14031;DHT22;7090;49.436;8.490;2023-03-01T14:25:20;11.10;1.00
14031;DHT22;7090;49.436;8.490;2023-03-01T14:27:55;11.20;1.00
14031;DHT22;7090;49.436;8.490;2023-03-01T14:30:24;10.70;1.00
14031;DHT22;7090;49.436;8.490;2023-03-01T14:32:59;10.60;1.00
14031;DHT22;7090;49.436;8.490;2023-03-01T14:35:30;10.60;1.00
14031;DHT22;7090;49.436;8.490;2023-03-01T14:37:57;10.40;1.00
14031;DHT22;7090;49.436;8.490;2023-03-01T14:40:28;10.40;1.00
14031;DHT22;7090;49.436;8.490;2023-03-01T14:42:57;10.70;1.00
14031;DHT22;7090;49.436;8.490;2023-03-01T14:45:25;11.10;1.00
14031;DHT22;7090;49.436;8.490;2023-03-01T14:47:52;10.90;1.00
14031;DHT22;7090;49.436;8.490;2023-03-01T14:50:27;10.70;1.00
14031;DHT22;7090;49.436;8.490;2023-03-01T14:53:02;10.60;1.00
14031;DHT22;7090;49.436;8.490;2023-03-01T14:57:54;10.90;1.00
14031;DHT22;7090;49.436;8.490;2023-03-01T15:00:25;10.80;1.00
14031;DHT22;7090;49.436;8.490;2023-03-01T15:02:53;11.10;1.00
14031;DHT22;7090;49.436;8.490;2023-03-01T15:05:33;10.70;1.00
14031;DHT22;7090;49.436;8.490;2023-03-01T15:08:00;10.80;1.00
14031;DHT22;7090;49.436;8.490;2023-03-01T15:10:28;10.90;1.00
14031;DHT22;7090;49.436;8.490;2023-03-01T15:12:54;10.60;1.00
14031;DHT22;7090;49.436;8.490;2023-03-01T15:15:35;10.50;1.00
14031;DHT22;7090;49.436;8.490;2023-03-01T15:18:04;10.80;1.00
14031;DHT22;7090;49.436;8.490;2023-03-01T15:20:32;11.10;1.00
14031;DHT22;7090;49.436;8.490;2023-03-01T15:23:01;11.50;1.00
14031;DHT22;7090;49.436;8.490;2023-03-01T15:25:29;11.40;1.00
14031;DHT22;7090;49.436;8.490;2023-03-01T15:27:57;10.90;1.00
14031;DHT22;7090;49.436;8.490;2023-03-01T15:30:24;10.90;1.00
14031;DHT22;7090;49.436;8.490;2023-03-01T15:35:56;11.10;1.00
14031;DHT22;7090;49.436;8.490;2023-03-01T15:38:36;11.30;1.00
14031;DHT22;7090;49.436;8.490;2023-03-01T15:41:36;10.70;1.00
14031;DHT22;7090;49.436;8.490;2023-03-01T15:44:28;10.40;1.00
14031;DHT22;7090;49.436;8.490;2023-03-01T15:46:54;10.80;1.00
14031;DHT22;7090;49.436;8.490;2023-03-01T15:49:41;10.80;1.00
14031;DHT22;7090;49.436;8.490;2023-03-01T15:52:17;10.30;1.00
14031;DHT22;7090;49.436;8.490;2023-03-01T15:54:44;10.00;1.00
14031;DHT22;7090;49.436;8.490;2023-03-01T15:57:14;9.90;1.00
14031;DHT22;7090;49.436;8.490;2023-03-01T15:59:40;9.90;1.00
14031;DHT22;7090;49.436;8.490;2023-03-01T16:02:11;9.80;1.00
14031;DHT22;7090;49.436;8.490;2023-03-01T16:04:38;10.20;1.00
14031;DHT22;7090;49.436;8.490;2023-03-01T16:07:04;10.40;1.00
14031;DHT22;7090;49.436;8.490;2023-03-01T16:09:30;10.30;1.00
14031;DHT22;7090;49.436;8.490;2023-03-01T16:11:55;10.30;1.00
14031;DHT22;7090;49.436;8.490;2023-03-01T16:14:21;10.00;1.00
14031;DHT22;7090;49.436;8.490;2023-03-01T16:16:47;10.00;1.00
14031;DHT22;7090;49.436;8.490;2023-03-01T16:19:16;10.00;1.00
14031;DHT22;7090;49.436;8.490;2023-03-01T16:21:42;9.70;1.00
14031;DHT22;7090;49.436;8.490;2023-03-01T16:24:12;9.90;1.00
14031;DHT22;7090;49.436;8.490;2023-03-01T16:26:38;9.60;1.00
14031;DHT22;7090;49.436;8.490;2023-03-01T16:29:04;9.60;1.00
14031;DHT22;7090;49.436;8.490;2023-03-01T16:31:29;9.40;1.00
14031;DHT22;7090;49.436;8.490;2023-03-01T16:33:57;9.40;1.00
14031;DHT22;7090;49.436;8.490;2023-03-01T16:36:23;9.30;1.00
14031;DHT22;7090;49.436;8.490;2023-03-01T16:38:52;9.20;1.00
14031;DHT22;7090;49.436;8.490;2023-03-01T16:41:20;9.00;1.00
14031;DHT22;7090;49.436;8.490;2023-03-01T16:43:46;8.90;1.00
14031;DHT22;7090;49.436;8.490;2023-03-01T16:46:14;8.90;1.00
14031;DHT22;7090;49.436;8.490;2023-03-01T16:48:41;8.80;1.00
14031;DHT22;7090;49.436;8.490;2023-03-01T16:51:08;8.70;1.00
14031;DHT22;7090;49.436;8.490;2023-03-01T16:53:35;8.70;1.00
14031;DHT22;7090;49.436;8.490;2023-03-01T16:56:05;8.60;1.00
14031;DHT22;7090;49.436;8.490;2023-03-01T16:58:31;8.60;1.00
14031;DHT22;7090;49.436;8.490;2023-03-01T17:01:04;8.50;1.00
14031;DHT22;7090;49.436;8.490;2023-03-01T17:03:30;8.40;1.00
14031;DHT22;7090;49.436;8.490;2023-03-01T17:06:23;8.40;1.00
14031;DHT22;7090;49.436;8.490;2023-03-01T17:08:51;8.30;1.00
14031;DHT22;7090;49.436;8.490;2023-03-01T17:11:19;8.30;1.00
14031;DHT22;7090;49.436;8.490;2023-03-01T17:13:44;8.20;1.00
14031;DHT22;7090;49.436;8.490;2023-03-01T17:16:12;8.20;1.00
14031;DHT22;7090;49.436;8.490;2023-03-01T17:18:38;8.10;1.00
14031;DHT22;7090;49.436;8.490;2023-03-01T17:21:05;8.10;1.00
14031;DHT22;7090;49.436;8.490;2023-03-01T17:23:32;8.10;1.00
14031;DHT22;7090;49.436;8.490;2023-03-01T17:25:57;8.10;1.00
14031;DHT22;7090;49.436;8.490;2023-03-01T17:28:26;8.00;1.00
14031;DHT22;7090;49.436;8.490;2023-03-01T17:30:52;7.90;1.00
14031;DHT22;7090;49.436;8.490;2023-03-01T17:33:18;7.80;1.00
14031;DHT22;7090;49.436;8.490;2023-03-01T17:35:44;7.80;1.00
14031;DHT22;7090;49.436;8.490;2023-03-01T17:38:12;7.70;1.00
14031;DHT22;7090;49.436;8.490;2023-03-01T17:40:39;7.60;1.00
14031;DHT22;7090;49.436;8.490;2023-03-01T17:43:05;7.40;1.00
14031;DHT22;7090;49.436;8.490;2023-03-01T17:45:30;7.30;1.00
14031;DHT22;7090;49.436;8.490;2023-03-01T17:47:56;7.30;1.00
14031;DHT22;7090;49.436;8.490;2023-03-01T17:50:22;7.30;1.00
14031;DHT22;7090;49.436;8.490;2023-03-01T17:52:47;7.30;1.00
14031;DHT22;7090;49.436;8.490;2023-03-01T17:55:39;7.30;1.00
14031;DHT22;7090;49.436;8.490;2023-03-01T17:58:06;7.20;1.00
14031;DHT22;7090;49.436;8.490;2023-03-01T18:00:33;7.10;1.00
14031;DHT22;7090;49.436;8.490;2023-03-01T18:02:59;7.10;1.00
14031;DHT22;7090;49.436;8.490;2023-03-01T18:05:25;7.00;1.00
14031;DHT22;7090;49.436;8.490;2023-03-01T18:07:51;6.90;1.00
14031;DHT22;7090;49.436;8.490;2023-03-01T18:10:18;6.90;1.00
14031;DHT22;7090;49.436;8.490;2023-03-01T18:12:44;6.90;1.00
14031;DHT22;7090;49.436;8.490;2023-03-01T18:15:11;6.90;1.00
14031;DHT22;7090;49.436;8.490;2023-03-01T18:17:36;6.90;1.00